Jobst Oldendorff — 9HA3736 — position and weather

sailwx.info

Track history (hours):
 
Tides and Currents Weather Stations Pressure Air Temp Water Temp Dewpoint Dewpoint Depression Visibility Wind Speed Wind Dir Waves Ship Positions

Jobst Oldendorff

Last reported at 2018-Feb-13 03:36 UTC. Time now 2018-Feb-26 03:56 UTC.
Position N 36°21' E 014°53'.
Warning: this ship's position is 13 days out of date.

Length 200 m; draft 10.5 m.

Type: Cargo ship. MMSI: 229943000.

Date/timePositionNaut miles runAvg speedWind from/ knotsBaromVisibWave heightAir tempDewpointWater temp
2018-Feb-13 03:36N 36°21' E 014°53'214.2
2018-Feb-13 03:29N 36°22' E 014°51'814.2
2018-Feb-13 02:56N 36°24' E 014°42'614.1
2018-Feb-13 02:29N 36°26' E 014°35'714.0
2018-Feb-13 02:00N 36°29' E 014°26'714.0
2018-Feb-13 01:30N 36°31' E 014°18'714.1
2018-Feb-13 00:59N 36°33' E 014°10'1814.1
2018-Feb-12 23:42N 36°39' E 013°48'1113.8
2018-Feb-12 22:56N 36°42' E 013°36'  
2018-Feb-10 04:33N 36°01' W 005°08'113.4
2018-Feb-10 04:28N 36°01' W 005°09'614.1
2018-Feb-10 04:00N 36°02' W 005°17'611.1
2018-Feb-10 03:30N 36°06' W 005°22'1 1.8
2018-Feb-10 02:56N 36°07' W 005°22'0 0.0
2018-Feb-10 02:26N 36°07' W 005°22'0 0.0
2018-Feb-10 01:50N 36°07' W 005°22'0 0.0
2018-Feb-10 01:29N 36°07' W 005°22'0 0.0
2018-Feb-10 00:53N 36°07' W 005°22'0 0.0
2018-Feb-10 00:29N 36°07' W 005°22'0 0.0
2018-Feb-09 23:26N 36°07' W 005°22'0 0.1
2018-Feb-09 22:44N 36°07' W 005°22'0 0.0
2018-Feb-09 18:00N 36°07' W 005°22'8 0.3
2018-Feb-08 18:00N 35°59' W 005°23'613.0
2018-Feb-08 17:30N 35°57' W 005°31'611.7
2018-Feb-08 17:00N 35°56' W 005°38'611.4
2018-Feb-08 16:30N 35°55' W 005°45'1111.3
2018-Feb-08 15:30N 35°53' W 005°59'  
2018-Feb-05 20:59N 28°32' W 014°37'6 9.1
2018-Feb-05 20:22N 28°28' W 014°41'3 9.2
2018-Feb-05 20:00N 28°25' W 014°44'5 9.4
2018-Feb-05 19:30N 28°21' W 014°47'5 9.2
2018-Feb-05 18:56N 28°17' W 014°49'4 8.6
2018-Feb-05 18:30N 28°13' W 014°51'13 9.0
2018-Feb-05 17:00N 28°01' W 014°56'5 8.9
2018-Feb-05 16:30N 27°57' W 014°58'5 9.4
2018-Feb-05 16:00N 27°52' W 015°00'5 9.5
2018-Feb-05 15:30N 27°48' W 015°02'5 9.7
2018-Feb-05 15:00N 27°45' W 015°07'5 9.7
2018-Feb-05 14:29N 27°42' W 015°11'5 9.5
2018-Feb-05 14:00N 27°39' W 015°16'  
Track history (hours):
 
Tides and Currents Weather Stations Pressure Air Temp Water Temp Dewpoint Dewpoint Depression Visibility Wind Speed Wind Dir Waves Ship Positions

Jobst Oldendorff

Last reported at 2018-Feb-13 03:36 UTC. Time now 2018-Feb-26 03:56 UTC.
Position N 36°21' E 014°53'.
Warning: this ship's position is 13 days out of date.

Length 200 m; draft 10.5 m.

Type: Cargo ship. MMSI: 229943000.

Date/timePositionNaut miles runAvg speedWind from/ knotsBaromVisibWave heightAir tempDewpointWater temp
2018-Feb-13 03:36N 36°21' E 014°53'214.2
2018-Feb-13 03:29N 36°22' E 014°51'814.2
2018-Feb-13 02:56N 36°24' E 014°42'614.1
2018-Feb-13 02:29N 36°26' E 014°35'714.0
2018-Feb-13 02:00N 36°29' E 014°26'714.0
2018-Feb-13 01:30N 36°31' E 014°18'714.1
2018-Feb-13 00:59N 36°33' E 014°10'1814.1
2018-Feb-12 23:42N 36°39' E 013°48'1113.8
2018-Feb-12 22:56N 36°42' E 013°36'  
2018-Feb-10 04:33N 36°01' W 005°08'113.4
2018-Feb-10 04:28N 36°01' W 005°09'614.1
2018-Feb-10 04:00N 36°02' W 005°17'611.1
2018-Feb-10 03:30N 36°06' W 005°22'1 1.8
2018-Feb-10 02:56N 36°07' W 005°22'0 0.0
2018-Feb-10 02:26N 36°07' W 005°22'0 0.0
2018-Feb-10 01:50N 36°07' W 005°22'0 0.0
2018-Feb-10 01:29N 36°07' W 005°22'0 0.0
2018-Feb-10 00:53N 36°07' W 005°22'0 0.0
2018-Feb-10 00:29N 36°07' W 005°22'0 0.0
2018-Feb-09 23:26N 36°07' W 005°22'0 0.1
2018-Feb-09 22:44N 36°07' W 005°22'0 0.0
2018-Feb-09 18:00N 36°07' W 005°22'8 0.3
2018-Feb-08 18:00N 35°59' W 005°23'613.0
2018-Feb-08 17:30N 35°57' W 005°31'611.7
2018-Feb-08 17:00N 35°56' W 005°38'611.4
2018-Feb-08 16:30N 35°55' W 005°45'1111.3
2018-Feb-08 15:30N 35°53' W 005°59'  
2018-Feb-05 20:59N 28°32' W 014°37'6 9.1
2018-Feb-05 20:22N 28°28' W 014°41'3 9.2
2018-Feb-05 20:00N 28°25' W 014°44'5 9.4
2018-Feb-05 19:30N 28°21' W 014°47'5 9.2
2018-Feb-05 18:56N 28°17' W 014°49'4 8.6
2018-Feb-05 18:30N 28°13' W 014°51'13 9.0
2018-Feb-05 17:00N 28°01' W 014°56'5 8.9
2018-Feb-05 16:30N 27°57' W 014°58'5 9.4
2018-Feb-05 16:00N 27°52' W 015°00'5 9.5
2018-Feb-05 15:30N 27°48' W 015°02'5 9.7
2018-Feb-05 15:00N 27°45' W 015°07'5 9.7
2018-Feb-05 14:29N 27°42' W 015°11'5 9.5
2018-Feb-05 14:00N 27°39' W 015°16'  

Dump ship's entire track history